Aviation Digital Data Service (ADDS)

Output produced by METARs form (1417 UTC 23 January 2019)
found at http://www.aviationweather.gov/metar/data/
 
METAR text: ZLXY 231400Z 00000MPS 6000 NSC M04/M11 Q1019 NOSIG
Conditions at: ZLXY (XIANYANG , CN) observed 1400 UTC 23 January 2019
Temperature: -4.0°C (25°F)
Dewpoint: -11.0°C (12°F) [RH = 58%]
Pressure (altimeter): 30.09 inches Hg (1019.0 mb)
Winds: calm
Visibility: 4 miles ( 6 km)
Ceiling: at least 12,000 feet AGL
Clouds: sky clear below 12,000 feet AGL
Weather: no significant weather observed at this time

METAR text: ZLXY 231300Z 27001MPS 6000 NSC M03/M11 Q1019 NOSIG
Conditions at: ZLXY (XIANYANG , CN) observed 1300 UTC 23 January 2019
Temperature: -3.0°C (27°F)
Dewpoint: -11.0°C (12°F) [RH = 54%]
Pressure (altimeter): 30.09 inches Hg (1019.0 mb)
Winds: from the W (270 degrees) at 2 MPH (2 knots; 1.0 m/s)
Visibility: 4 miles ( 6 km)
Ceiling: at least 12,000 feet AGL
Clouds: sky clear below 12,000 feet AGL
Weather: no significant weather observed at this time

METAR text: ZLXY 231200Z 27001MPS 8000 NSC M03/M12 Q1019 NOSIG
Conditions at: ZLXY (XIANYANG , CN) observed 1200 UTC 23 January 2019
Temperature: -3.0°C (27°F)
Dewpoint: -12.0°C (10°F) [RH = 50%]
Pressure (altimeter): 30.09 inches Hg (1019.0 mb)
Winds: from the W (270 degrees) at 2 MPH (2 knots; 1.0 m/s)
Visibility: 5 miles ( 8 km)
Ceiling: at least 12,000 feet AGL
Clouds: sky clear below 12,000 feet AGL
Weather: no significant weather observed at this time

METAR text: ZLXY 231100Z 03001MPS 8000 NSC M01/M12 Q1019 NOSIG
Conditions at: ZLXY (XIANYANG , CN) observed 1100 UTC 23 January 2019
Temperature: -1.0°C (30°F)
Dewpoint: -12.0°C (10°F) [RH = 43%]
Pressure (altimeter): 30.09 inches Hg (1019.0 mb)
Winds: from the NNE (30 degrees) at 2 MPH (2 knots; 1.0 m/s)
Visibility: 5 miles ( 8 km)
Ceiling: at least 12,000 feet AGL
Clouds: sky clear below 12,000 feet AGL
Weather: no significant weather observed at this time

METAR text: ZLXY 231000Z 03002MPS CAVOK 06/M13 Q1018 NOSIG
Conditions at: ZLXY (XIANYANG , CN) observed 1000 UTC 23 January 2019
Temperature: 6.0°C (43°F)
Dewpoint: -13.0°C ( 9°F) [RH = 24%]
Pressure (altimeter): 30.06 inches Hg (1018.0 mb)
Winds: from the NNE (30 degrees) at 5 MPH (4 knots; 2.1 m/s)
Visibility: 6 or more miles (10+ km)
Ceiling: ceiling and visibility are OK
Clouds: unknown
Weather: no significant weather observed at this time

METAR text: ZLXY 230900Z 07003MPS 030V100 CAVOK 09/M13 Q1018 NOSIG
Conditions at: ZLXY (XIANYANG , CN) observed 0900 UTC 23 January 2019
Temperature: 9.0°C (48°F)
Dewpoint: -13.0°C ( 9°F) [RH = 20%]
Pressure (altimeter): 30.06 inches Hg (1018.0 mb)
Winds: from the ENE (70 degrees) at 7 MPH (6 knots; 3.1 m/s)
Visibility: 6 or more miles (10+ km)
Ceiling: ceiling and visibility are OK
Clouds: unknown
Weather: no significant weather observed at this time

METAR text: ZLXY 230800Z 05004MPS 010V100 8000 NSC 10/M12 Q1019 NOSIG
Conditions at: ZLXY (XIANYANG , CN) observed 0800 UTC 23 January 2019
Temperature: 10.0°C (50°F)
Dewpoint: -12.0°C (10°F) [RH = 20%]
Pressure (altimeter): 30.09 inches Hg (1019.0 mb)
Winds: from the NE (50 degrees) at 9 MPH (8 knots; 4.1 m/s)
Visibility: 5 miles ( 8 km)
Ceiling: at least 12,000 feet AGL
Clouds: sky clear below 12,000 feet AGL
Weather: no significant weather observed at this time

METAR text: ZLXY 230700Z 08004MPS 050V120 6000 NSC 09/M11 Q1019 NOSIG
Conditions at: ZLXY (XIANYANG , CN) observed 0700 UTC 23 January 2019
Temperature: 9.0°C (48°F)
Dewpoint: -11.0°C (12°F) [RH = 23%]
Pressure (altimeter): 30.09 inches Hg (1019.0 mb)
Winds: from the E (80 degrees) at 9 MPH (8 knots; 4.1 m/s)
Visibility: 4 miles ( 6 km)
Ceiling: at least 12,000 feet AGL
Clouds: sky clear below 12,000 feet AGL
Weather: no significant weather observed at this time

METAR text: ZLXY 230600Z 07004MPS 030V100 6000 NSC 09/M11 Q1020 NOSIG
Conditions at: ZLXY (XIANYANG , CN) observed 0600 UTC 23 January 2019
Temperature: 9.0°C (48°F)
Dewpoint: -11.0°C (12°F) [RH = 23%]
Pressure (altimeter): 30.12 inches Hg (1020.0 mb)
Winds: from the ENE (70 degrees) at 9 MPH (8 knots; 4.1 m/s)
Visibility: 4 miles ( 6 km)
Ceiling: at least 12,000 feet AGL
Clouds: sky clear below 12,000 feet AGL
Weather: no significant weather observed at this time

METAR text: ZLXY 230500Z 07004MPS 030V100 5000 HZ NSC 07/M09 Q1021 NOSIG
Conditions at: ZLXY (XIANYANG , CN) observed 0500 UTC 23 January 2019
Temperature: 7.0°C (45°F)
Dewpoint: -9.0°C (16°F) [RH = 31%]
Pressure (altimeter): 30.15 inches Hg (1021.0 mb)
Winds: from the ENE (70 degrees) at 9 MPH (8 knots; 4.1 m/s)
Visibility: 3 miles ( 5 km)
Ceiling: at least 12,000 feet AGL
Clouds: sky clear below 12,000 feet AGL
Weather: HZ  (haze)

METAR text: ZLXY 230400Z 07003MPS 030V100 6000 NSC 05/M10 Q1022 NOSIG
Conditions at: ZLXY (XIANYANG , CN) observed 0400 UTC 23 January 2019
Temperature: 5.0°C (41°F)
Dewpoint: -10.0°C (14°F) [RH = 33%]
Pressure (altimeter): 30.18 inches Hg (1022.0 mb)
Winds: from the ENE (70 degrees) at 7 MPH (6 knots; 3.1 m/s)
Visibility: 4 miles ( 6 km)
Ceiling: at least 12,000 feet AGL
Clouds: sky clear below 12,000 feet AGL
Weather: no significant weather observed at this time

METAR text: ZLXY 230300Z 06004MPS 6000 NSC 04/M11 Q1023 NOSIG
Conditions at: ZLXY (XIANYANG , CN) observed 0300 UTC 23 January 2019
Temperature: 4.0°C (39°F)
Dewpoint: -11.0°C (12°F) [RH = 32%]
Pressure (altimeter): 30.21 inches Hg (1023.0 mb)
Winds: from the ENE (60 degrees) at 9 MPH (8 knots; 4.1 m/s)
Visibility: 4 miles ( 6 km)
Ceiling: at least 12,000 feet AGL
Clouds: sky clear below 12,000 feet AGL
Weather: no significant weather observed at this time

METAR text: ZLXY 230200Z 06004MPS 6000 NSC 02/M11 Q1023 NOSIG
Conditions at: ZLXY (XIANYANG , CN) observed 0200 UTC 23 January 2019
Temperature: 2.0°C (36°F)
Dewpoint: -11.0°C (12°F) [RH = 37%]
Pressure (altimeter): 30.21 inches Hg (1023.0 mb)
Winds: from the ENE (60 degrees) at 9 MPH (8 knots; 4.1 m/s)
Visibility: 4 miles ( 6 km)
Ceiling: at least 12,000 feet AGL
Clouds: sky clear below 12,000 feet AGL
Weather: no significant weather observed at this time

METAR text: ZLXY 230100Z 01001MPS 5000 BR NSC M05/M08 Q1023 NOSIG
Conditions at: ZLXY (XIANYANG , CN) observed 0100 UTC 23 January 2019
Temperature: -5.0°C (23°F)
Dewpoint: -8.0°C (18°F) [RH = 79%]
Pressure (altimeter): 30.21 inches Hg (1023.0 mb)
Winds: from the N (10 degrees) at 2 MPH (2 knots; 1.0 m/s)
Visibility: 3 miles ( 5 km)
Ceiling: at least 12,000 feet AGL
Clouds: sky clear below 12,000 feet AGL
Weather: BR  (mist)

METAR text: ZLXY 230000Z 00000MPS 7000 NSC M11/M14 Q1022 NOSIG
Conditions at: ZLXY (XIANYANG , CN) observed 0000 UTC 23 January 2019
Temperature: -11.0°C (12°F)
Dewpoint: -14.0°C ( 7°F) [RH = 78%]
Pressure (altimeter): 30.18 inches Hg (1022.0 mb)
Winds: calm
Visibility: 4 miles ( 7 km)
Ceiling: at least 12,000 feet AGL
Clouds: sky clear below 12,000 feet AGL
Weather: no significant weather observed at this time

METAR text: ZLXY 222300Z 27002MPS 7000 NSC M11/M14 Q1022 NOSIG
Conditions at: ZLXY (XIANYANG , CN) observed 2300 UTC 22 January 2019
Temperature: -11.0°C (12°F)
Dewpoint: -14.0°C ( 7°F) [RH = 78%]
Pressure (altimeter): 30.18 inches Hg (1022.0 mb)
Winds: from the W (270 degrees) at 5 MPH (4 knots; 2.1 m/s)
Visibility: 4 miles ( 7 km)
Ceiling: at least 12,000 feet AGL
Clouds: sky clear below 12,000 feet AGL
Weather: no significant weather observed at this time

METAR text: ZLXY 222200Z VRB01MPS 7000 NSC M10/M13 Q1022 NOSIG
Conditions at: ZLXY (XIANYANG , CN) observed 2200 UTC 22 January 2019
Temperature: -10.0°C (14°F)
Dewpoint: -13.0°C ( 9°F) [RH = 79%]
Pressure (altimeter): 30.18 inches Hg (1022.0 mb)
Winds: variable direction winds at 2 MPH (2 knots; 1.0 m/s)
Visibility: 4 miles ( 7 km)
Ceiling: at least 12,000 feet AGL
Clouds: sky clear below 12,000 feet AGL
Weather: no significant weather observed at this time

METAR text: ZLXY 222100Z VRB01MPS 4000 BR NSC M10/M12 Q1022 NOSIG
Conditions at: ZLXY (XIANYANG , CN) observed 2100 UTC 22 January 2019
Temperature: -10.0°C (14°F)
Dewpoint: -12.0°C (10°F) [RH = 85%]
Pressure (altimeter): 30.18 inches Hg (1022.0 mb)
Winds: variable direction winds at 2 MPH (2 knots; 1.0 m/s)
Visibility: 2.49 miles (4.01 km)
Ceiling: at least 12,000 feet AGL
Clouds: sky clear below 12,000 feet AGL
Weather: BR  (mist)

METAR text: ZLXY 222000Z VRB01MPS 4000 BR NSC M09/M12 Q1022 NOSIG
Conditions at: ZLXY (XIANYANG , CN) observed 2000 UTC 22 January 2019
Temperature: -9.0°C (16°F)
Dewpoint: -12.0°C (10°F) [RH = 79%]
Pressure (altimeter): 30.18 inches Hg (1022.0 mb)
Winds: variable direction winds at 2 MPH (2 knots; 1.0 m/s)
Visibility: 2.49 miles (4.01 km)
Ceiling: at least 12,000 feet AGL
Clouds: sky clear below 12,000 feet AGL
Weather: BR  (mist)

METAR text: ZLXY 221900Z 00000MPS 4000 BR NSC M10/M13 Q1022 NOSIG
Conditions at: ZLXY (XIANYANG , CN) observed 1900 UTC 22 January 2019
Temperature: -10.0°C (14°F)
Dewpoint: -13.0°C ( 9°F) [RH = 79%]
Pressure (altimeter): 30.18 inches Hg (1022.0 mb)
Winds: calm
Visibility: 2.49 miles (4.01 km)
Ceiling: at least 12,000 feet AGL
Clouds: sky clear below 12,000 feet AGL
Weather: BR  (mist)

METAR text: ZLXY 221800Z 27002MPS 4000 HZ NSC M09/M12 Q1022 NOSIG
Conditions at: ZLXY (XIANYANG , CN) observed 1800 UTC 22 January 2019
Temperature: -9.0°C (16°F)
Dewpoint: -12.0°C (10°F) [RH = 79%]
Pressure (altimeter): 30.18 inches Hg (1022.0 mb)
Winds: from the W (270 degrees) at 5 MPH (4 knots; 2.1 m/s)
Visibility: 2.49 miles (4.01 km)
Ceiling: at least 12,000 feet AGL
Clouds: sky clear below 12,000 feet AGL
Weather: HZ  (haze)

METAR text: ZLXY 221700Z 27002MPS 4000 HZ NSC M07/M12 Q1022 NOSIG
Conditions at: ZLXY (XIANYANG , CN) observed 1700 UTC 22 January 2019
Temperature: -7.0°C (19°F)
Dewpoint: -12.0°C (10°F) [RH = 67%]
Pressure (altimeter): 30.18 inches Hg (1022.0 mb)
Winds: from the W (270 degrees) at 5 MPH (4 knots; 2.1 m/s)
Visibility: 2.49 miles (4.01 km)
Ceiling: at least 12,000 feet AGL
Clouds: sky clear below 12,000 feet AGL
Weather: HZ  (haze)

METAR text: ZLXY 221600Z 00000MPS 4000 HZ NSC M08/M12 Q1022 NOSIG
Conditions at: ZLXY (XIANYANG , CN) observed 1600 UTC 22 January 2019
Temperature: -8.0°C (18°F)
Dewpoint: -12.0°C (10°F) [RH = 73%]
Pressure (altimeter): 30.18 inches Hg (1022.0 mb)
Winds: calm
Visibility: 2.49 miles (4.01 km)
Ceiling: at least 12,000 feet AGL
Clouds: sky clear below 12,000 feet AGL
Weather: HZ  (haze)

METAR text: ZLXY 221500Z 28002MPS 4000 HZ NSC M06/M11 Q1022 NOSIG
Conditions at: ZLXY (XIANYANG , CN) observed 1500 UTC 22 January 2019
Temperature: -6.0°C (21°F)
Dewpoint: -11.0°C (12°F) [RH = 68%]
Pressure (altimeter): 30.18 inches Hg (1022.0 mb)
Winds: from the W (280 degrees) at 5 MPH (4 knots; 2.1 m/s)
Visibility: 2.49 miles (4.01 km)
Ceiling: at least 12,000 feet AGL
Clouds: sky clear below 12,000 feet AGL
Weather: HZ  (haze)

METAR text: ZLXY 221400Z 00000MPS 5000 HZ NSC M06/M12 Q1022 NOSIG
Conditions at: ZLXY (XIANYANG , CN) observed 1400 UTC 22 January 2019
Temperature: -6.0°C (21°F)
Dewpoint: -12.0°C (10°F) [RH = 62%]
Pressure (altimeter): 30.18 inches Hg (1022.0 mb)
Winds: calm
Visibility: 3 miles ( 5 km)
Ceiling: at least 12,000 feet AGL
Clouds: sky clear below 12,000 feet AGL
Weather: HZ  (haze)

METAR text: ZLXY 221300Z 27002MPS 6000 NSC M06/M12 Q1022 NOSIG
Conditions at: ZLXY (XIANYANG , CN) observed 1300 UTC 22 January 2019
Temperature: -6.0°C (21°F)
Dewpoint: -12.0°C (10°F) [RH = 62%]
Pressure (altimeter): 30.18 inches Hg (1022.0 mb)
Winds: from the W (270 degrees) at 5 MPH (4 knots; 2.1 m/s)
Visibility: 4 miles ( 6 km)
Ceiling: at least 12,000 feet AGL
Clouds: sky clear below 12,000 feet AGL
Weather: no significant weather observed at this time

METAR text: ZLXY 221200Z 00000MPS 6000 NSC M02/M11 Q1022 NOSIG
Conditions at: ZLXY (XIANYANG , CN) observed 1200 UTC 22 January 2019
Temperature: -2.0°C (28°F)
Dewpoint: -11.0°C (12°F) [RH = 50%]
Pressure (altimeter): 30.18 inches Hg (1022.0 mb)
Winds: calm
Visibility: 4 miles ( 6 km)
Ceiling: at least 12,000 feet AGL
Clouds: sky clear below 12,000 feet AGL
Weather: no significant weather observed at this time

METAR text: ZLXY 221100Z 28001MPS 7000 NSC M01/M12 Q1022 NOSIG
Conditions at: ZLXY (XIANYANG , CN) observed 1100 UTC 22 January 2019
Temperature: -1.0°C (30°F)
Dewpoint: -12.0°C (10°F) [RH = 43%]
Pressure (altimeter): 30.18 inches Hg (1022.0 mb)
Winds: from the W (280 degrees) at 2 MPH (2 knots; 1.0 m/s)
Visibility: 4 miles ( 7 km)
Ceiling: at least 12,000 feet AGL
Clouds: sky clear below 12,000 feet AGL
Weather: no significant weather observed at this time

METAR text: ZLXY 221000Z 01002MPS CAVOK 07/M12 Q1021 NOSIG
Conditions at: ZLXY (XIANYANG , CN) observed 1000 UTC 22 January 2019
Temperature: 7.0°C (45°F)
Dewpoint: -12.0°C (10°F) [RH = 24%]
Pressure (altimeter): 30.15 inches Hg (1021.0 mb)
Winds: from the N (10 degrees) at 5 MPH (4 knots; 2.1 m/s)
Visibility: 6 or more miles (10+ km)
Ceiling: ceiling and visibility are OK
Clouds: unknown
Weather: no significant weather observed at this time

METAR text: ZLXY 220900Z 07002MPS 360V140 CAVOK 11/M13 Q1021 NOSIG
Conditions at: ZLXY (XIANYANG , CN) observed 0900 UTC 22 January 2019
Temperature: 11.0°C (52°F)
Dewpoint: -13.0°C ( 9°F) [RH = 17%]
Pressure (altimeter): 30.15 inches Hg (1021.0 mb)
Winds: from the ENE (70 degrees) at 5 MPH (4 knots; 2.1 m/s)
Visibility: 6 or more miles (10+ km)
Ceiling: ceiling and visibility are OK
Clouds: unknown
Weather: no significant weather observed at this time

METAR text: ZLXY 220800Z 07002MPS 030V120 CAVOK 12/M11 Q1021 NOSIG
Conditions at: ZLXY (XIANYANG , CN) observed 0800 UTC 22 January 2019
Temperature: 12.0°C (54°F)
Dewpoint: -11.0°C (12°F) [RH = 19%]
Pressure (altimeter): 30.15 inches Hg (1021.0 mb)
Winds: from the ENE (70 degrees) at 5 MPH (4 knots; 2.1 m/s)
Visibility: 6 or more miles (10+ km)
Ceiling: ceiling and visibility are OK
Clouds: unknown
Weather: no significant weather observed at this time

METAR text: ZLXY 220700Z 07002MPS 360V120 CAVOK 12/M10 Q1022 NOSIG
Conditions at: ZLXY (XIANYANG , CN) observed 0700 UTC 22 January 2019
Temperature: 12.0°C (54°F)
Dewpoint: -10.0°C (14°F) [RH = 20%]
Pressure (altimeter): 30.18 inches Hg (1022.0 mb)
Winds: from the ENE (70 degrees) at 5 MPH (4 knots; 2.1 m/s)
Visibility: 6 or more miles (10+ km)
Ceiling: ceiling and visibility are OK
Clouds: unknown
Weather: no significant weather observed at this time

METAR text: ZLXY 220600Z VRB02MPS CAVOK 10/M12 Q1023 NOSIG
Conditions at: ZLXY (XIANYANG , CN) observed 0600 UTC 22 January 2019
Temperature: 10.0°C (50°F)
Dewpoint: -12.0°C (10°F) [RH = 20%]
Pressure (altimeter): 30.21 inches Hg (1023.0 mb)
Winds: variable direction winds at 5 MPH (4 knots; 2.1 m/s)
Visibility: 6 or more miles (10+ km)
Ceiling: ceiling and visibility are OK
Clouds: unknown
Weather: no significant weather observed at this time

METAR text: ZLXY 220500Z VRB01MPS CAVOK 09/M10 Q1025 NOSIG
Conditions at: ZLXY (XIANYANG , CN) observed 0500 UTC 22 January 2019
Temperature: 9.0°C (48°F)
Dewpoint: -10.0°C (14°F) [RH = 25%]
Pressure (altimeter): 30.27 inches Hg (1025.0 mb)
Winds: variable direction winds at 2 MPH (2 knots; 1.0 m/s)
Visibility: 6 or more miles (10+ km)
Ceiling: ceiling and visibility are OK
Clouds: unknown
Weather: no significant weather observed at this time

METAR text: ZLXY 220400Z VRB01MPS CAVOK 07/M10 Q1026 NOSIG
Conditions at: ZLXY (XIANYANG , CN) observed 0400 UTC 22 January 2019
Temperature: 7.0°C (45°F)
Dewpoint: -10.0°C (14°F) [RH = 29%]
Pressure (altimeter): 30.30 inches Hg (1026.0 mb)
Winds: variable direction winds at 2 MPH (2 knots; 1.0 m/s)
Visibility: 6 or more miles (10+ km)
Ceiling: ceiling and visibility are OK
Clouds: unknown
Weather: no significant weather observed at this time

METAR text: ZLXY 220300Z VRB01MPS CAVOK 05/M10 Q1027 NOSIG
Conditions at: ZLXY (XIANYANG , CN) observed 0300 UTC 22 January 2019
Temperature: 5.0°C (41°F)
Dewpoint: -10.0°C (14°F) [RH = 33%]
Pressure (altimeter): 30.32 inches Hg (1027.0 mb)
Winds: variable direction winds at 2 MPH (2 knots; 1.0 m/s)
Visibility: 6 or more miles (10+ km)
Ceiling: ceiling and visibility are OK
Clouds: unknown
Weather: no significant weather observed at this time

Forecast for: ZLXY (XIANYANG , CN)
Text: TAF ZLXY 230901Z 2312/2412 06003MPS 3000 HZ NSC TX09/2407Z TNM08/23Z
Forecast period: 1200 UTC 23 January 2019 to 1200 UTC 24 January 2019
Forecast type: FROM: standard forecast or significant change
Winds: from the ENE (60 degrees) at 7 MPH (6 knots; 3.1 m/s)
Visibility: 1.86 miles (2.99 km)
Ceiling: unknown
Clouds: missing
Weather: HZ  (haze)